createdAt,value
2018-07-25T00:00:34.905Z,5.80
2018-07-25T00:03:03.228Z,5.17
2018-07-25T00:05:31.498Z,4.33
2018-07-25T00:08:00.119Z,5.50
2018-07-25T00:10:34.735Z,4.50
2018-07-25T00:13:05.117Z,4.43
2018-07-25T00:15:33.315Z,5.67
2018-07-25T00:18:01.515Z,5.83
2018-07-25T00:20:32.080Z,6.03
2018-07-25T00:23:01.331Z,5.90
2018-07-25T00:25:29.339Z,5.23
2018-07-25T00:27:57.638Z,5.43
2018-07-25T00:30:25.661Z,5.97
2018-07-25T00:32:54.101Z,5.37
2018-07-25T00:35:22.202Z,4.90
2018-07-25T00:37:50.182Z,5.70
2018-07-25T00:40:18.237Z,5.30
2018-07-25T00:42:48.124Z,5.10
2018-07-25T00:45:16.304Z,5.63
2018-07-25T00:47:44.409Z,5.00
2018-07-25T00:50:12.788Z,5.17
2018-07-25T00:52:43.075Z,5.03
2018-07-25T00:55:12.832Z,4.73
2018-07-25T00:57:41.508Z,5.20
2018-07-25T01:00:09.784Z,5.10
2018-07-25T01:02:38.004Z,4.47
2018-07-25T01:05:06.343Z,4.70
2018-07-25T01:07:34.565Z,4.47
2018-07-25T01:10:03.248Z,4.80
2018-07-25T01:12:31.735Z,4.80
2018-07-25T01:15:00.628Z,4.60
2018-07-25T01:17:30.172Z,4.70
2018-07-25T01:19:58.378Z,4.20
2018-07-25T01:22:26.658Z,4.20
2018-07-25T01:24:54.733Z,4.30
2018-07-25T01:27:23.109Z,4.50
2018-07-25T01:29:51.293Z,4.87
2018-07-25T01:32:19.389Z,4.90
2018-07-25T01:34:48.160Z,5.07
2018-07-25T01:37:16.151Z,5.13
2018-07-25T01:39:44.229Z,4.87
2018-07-25T01:42:12.951Z,5.50
2018-07-25T01:44:40.988Z,4.87
2018-07-25T01:47:09.019Z,5.50
2018-07-25T01:49:37.044Z,5.50
2018-07-25T01:52:05.370Z,5.07
2018-07-25T01:54:34.444Z,4.87
2018-07-25T01:57:02.590Z,5.23
2018-07-25T01:59:31.048Z,4.70
2018-07-25T02:02:00.110Z,5.30
2018-07-25T02:04:29.860Z,5.17
2018-07-25T02:07:01.176Z,5.00
2018-07-25T02:09:29.168Z,4.67
2018-07-25T02:11:57.140Z,4.80
2018-07-25T02:14:25.219Z,4.90
2018-07-25T02:16:53.274Z,5.23
2018-07-25T02:19:21.364Z,5.20
2018-07-25T02:21:49.833Z,5.00
2018-07-25T02:24:17.870Z,5.17
2018-07-25T02:26:46.108Z,8.20
2018-07-25T02:29:14.122Z,5.10
2018-07-25T02:31:42.232Z,5.10
2018-07-25T02:34:20.445Z,5.30
2018-07-25T02:36:50.042Z,5.60
2018-07-25T02:39:18.226Z,5.30
2018-07-25T02:41:46.678Z,5.13
2018-07-25T02:44:14.904Z,5.40
2018-07-25T02:46:43.176Z,5.63
2018-07-25T02:49:11.530Z,5.13
2018-07-25T02:51:39.606Z,5.67
2018-07-25T02:54:08.066Z,5.17
2018-07-25T02:56:37.544Z,5.43
2018-07-25T02:59:05.709Z,5.07
2018-07-25T03:01:34.492Z,5.60
2018-07-25T03:04:02.697Z,5.50
2018-07-25T03:06:31.072Z,5.37
2018-07-25T03:08:59.241Z,5.37
2018-07-25T03:11:27.295Z,5.30
2018-07-25T03:13:55.702Z,5.57
2018-07-25T03:16:23.821Z,5.30
2018-07-25T03:18:51.858Z,5.90
2018-07-25T03:21:19.981Z,5.90
2018-07-25T03:23:48.457Z,5.73
2018-07-25T03:26:16.784Z,5.77
2018-07-25T03:28:44.870Z,5.87
2018-07-25T03:31:13.271Z,5.50
2018-07-25T03:33:41.324Z,6.30
2018-07-25T03:36:09.833Z,5.90
2018-07-25T03:38:37.843Z,6.17
2018-07-25T03:41:06.239Z,5.87
2018-07-25T03:43:34.628Z,5.90
2018-07-25T03:46:02.635Z,6.10
2018-07-25T03:48:31.488Z,5.93
2018-07-25T03:50:59.620Z,6.87
2018-07-25T03:53:27.660Z,6.13
2018-07-25T03:55:55.976Z,6.13
2018-07-25T03:58:24.126Z,6.10
2018-07-25T04:00:52.174Z,6.73
2018-07-25T04:03:20.494Z,6.87
2018-07-25T04:05:48.835Z,6.73
2018-07-25T04:08:16.950Z,6.07
2018-07-25T04:10:48.547Z,6.57
2018-07-25T04:13:17.794Z,6.07
2018-07-25T04:15:46.201Z,6.80
2018-07-25T04:18:14.616Z,6.10
2018-07-25T04:20:42.782Z,6.17
2018-07-25T04:23:10.786Z,6.50
2018-07-25T04:25:39.105Z,6.93
2018-07-25T04:28:07.231Z,6.90
2018-07-25T04:30:36.225Z,7.07
2018-07-25T04:33:05.224Z,6.70
2018-07-25T04:35:33.306Z,6.40
2018-07-25T04:38:01.726Z,6.23
2018-07-25T04:40:29.989Z,6.63
2018-07-25T04:42:58.853Z,6.13
2018-07-25T04:45:27.417Z,6.83
2018-07-25T04:47:55.813Z,7.70
2018-07-25T04:50:24.265Z,7.03
2018-07-25T04:52:52.999Z,7.30
2018-07-25T04:55:23.613Z,7.13
2018-07-25T04:57:51.666Z,6.93
2018-07-25T05:00:19.800Z,7.37
2018-07-25T05:02:47.913Z,7.10
2018-07-25T05:05:16.187Z,7.47
2018-07-25T05:07:44.174Z,7.30
2018-07-25T05:10:12.343Z,7.67
2018-07-25T05:12:40.554Z,16.87
2018-07-25T05:15:08.782Z,9.43
2018-07-25T05:17:37.501Z,7.40
2018-07-25T05:20:06.077Z,8.00
2018-07-25T05:22:34.492Z,8.10
2018-07-25T05:25:04.095Z,9.37
2018-07-25T05:27:32.252Z,9.10
2018-07-25T05:30:01.650Z,7.73
2018-07-25T05:32:32.779Z,7.57
2018-07-25T05:35:01.280Z,8.07
2018-07-25T05:37:29.247Z,8.13
2018-07-25T05:39:57.405Z,8.17
2018-07-25T05:42:25.934Z,7.53
2018-07-25T05:44:54.055Z,8.10
2018-07-25T05:47:22.304Z,7.93
2018-07-25T05:49:51.203Z,8.03
2018-07-25T05:52:19.496Z,8.10
2018-07-25T05:54:47.807Z,8.07
2018-07-25T05:57:15.800Z,7.70
2018-07-25T05:59:44.600Z,8.50
2018-07-25T06:02:13.621Z,8.60
2018-07-25T06:04:41.597Z,7.67
2018-07-25T06:07:10.284Z,7.77
2018-07-25T06:09:38.361Z,7.80
2018-07-25T06:12:06.413Z,7.37
2018-07-25T06:14:34.500Z,7.27
2018-07-25T06:17:02.712Z,7.33
2018-07-25T06:19:31.756Z,7.30
2018-07-25T06:22:00.078Z,8.10
2018-07-25T06:24:28.094Z,7.77
2018-07-25T06:26:56.134Z,7.20
2018-07-25T06:29:24.307Z,7.10
2018-07-25T06:31:52.375Z,8.27
2018-07-25T06:34:23.136Z,7.00
2018-07-25T06:36:51.201Z,6.93
2018-07-25T06:39:19.915Z,7.53
2018-07-25T06:41:48.273Z,6.97
2018-07-25T06:44:16.697Z,6.97
2018-07-25T06:46:46.560Z,7.27
2018-07-25T06:49:15.727Z,7.67
2018-07-25T06:51:44.067Z,7.10
2018-07-25T06:54:12.155Z,7.00
2018-07-25T06:56:41.267Z,7.23
2018-07-25T06:59:09.776Z,6.87
2018-07-25T07:01:38.678Z,6.97
2018-07-25T07:04:06.873Z,7.20
2018-07-25T07:06:35.097Z,6.73
2018-07-25T07:09:04.721Z,6.37
2018-07-25T07:11:32.797Z,6.30
2018-07-25T07:14:01.287Z,6.77
2018-07-25T07:16:29.448Z,6.53
2018-07-25T07:18:57.592Z,6.50
2018-07-25T07:21:26.065Z,5.63
2018-07-25T07:23:55.195Z,5.70
2018-07-25T07:26:23.280Z,5.20
2018-07-25T07:28:52.893Z,4.90
2018-07-25T07:31:21.136Z,4.67
2018-07-25T07:33:50.174Z,4.93
2018-07-25T07:36:18.538Z,5.17
2018-07-25T07:38:48.925Z,4.80
2018-07-25T07:41:17.374Z,5.07
2018-07-25T07:43:45.695Z,4.87
2018-07-25T07:46:14.678Z,5.23
2018-07-25T07:48:43.445Z,4.80
2018-07-25T07:51:11.572Z,4.57
2018-07-25T07:53:40.232Z,4.47
2018-07-25T07:56:09.609Z,4.87
2018-07-25T07:58:40.985Z,4.83
2018-07-25T08:01:09.024Z,4.70
2018-07-25T08:03:39.201Z,4.33
2018-07-25T08:06:07.807Z,4.33
2018-07-25T08:08:36.122Z,4.33
2018-07-25T08:11:04.496Z,4.43
2018-07-25T08:13:33.700Z,4.17
2018-07-25T08:16:01.973Z,4.50
2018-07-25T08:18:30.019Z,4.67
2018-07-25T08:20:58.347Z,4.40
2018-07-25T08:23:26.389Z,3.93
2018-07-25T08:25:55.860Z,3.97
2018-07-25T08:28:23.832Z,3.90
2018-07-25T08:30:54.789Z,3.80
2018-07-25T08:33:23.284Z,3.70
2018-07-25T08:35:51.439Z,3.63
2018-07-25T08:38:30.974Z,3.50
2018-07-25T08:40:58.956Z,3.93
2018-07-25T08:43:27.508Z,3.50
2018-07-25T08:45:55.686Z,3.60
2018-07-25T08:48:24.238Z,4.93
2018-07-25T08:50:52.589Z,3.03
2018-07-25T08:53:21.245Z,3.10
2018-07-25T08:55:50.004Z,3.30
2018-07-25T08:58:19.084Z,3.33
2018-07-25T09:00:47.733Z,2.93
2018-07-25T09:03:15.880Z,3.30
2018-07-25T09:05:43.973Z,3.30
2018-07-25T09:08:12.005Z,3.40
2018-07-25T09:10:40.665Z,2.60
2018-07-25T09:13:09.510Z,3.20
2018-07-25T09:15:38.666Z,3.27
2018-07-25T09:18:06.973Z,3.30
2018-07-25T09:20:36.545Z,3.20
2018-07-25T09:23:05.310Z,2.90
2018-07-25T09:25:34.554Z,3.07
2018-07-25T09:28:02.540Z,2.80
2018-07-25T09:30:34.398Z,3.03
2018-07-25T09:33:02.984Z,3.03
2018-07-25T09:35:31.875Z,2.50
2018-07-25T09:38:00.380Z,2.70
2018-07-25T09:40:29.356Z,2.73
2018-07-25T09:42:57.482Z,2.37
2018-07-25T09:45:27.745Z,2.50
2018-07-25T09:47:55.781Z,2.63
2018-07-25T09:50:23.793Z,2.80
2018-07-25T09:52:51.835Z,2.30
2018-07-25T09:55:20.210Z,2.47
2018-07-25T09:57:48.457Z,2.37
2018-07-25T10:00:22.749Z,2.50
2018-07-25T10:02:51.737Z,2.17
2018-07-25T10:05:21.194Z,2.50
2018-07-25T10:07:50.396Z,2.30
2018-07-25T10:10:18.444Z,2.83
2018-07-25T10:12:47.664Z,2.40
2018-07-25T10:15:16.156Z,2.43
2018-07-25T10:17:44.398Z,2.77
2018-07-25T10:20:12.967Z,2.70
2018-07-25T10:22:41.939Z,3.10
2018-07-25T10:25:10.241Z,2.43
2018-07-25T10:27:40.007Z,2.30
2018-07-25T10:30:08.952Z,2.60
2018-07-25T10:32:37.941Z,2.47
2018-07-25T10:35:06.234Z,2.50
2018-07-25T10:37:34.559Z,2.50
2018-07-25T10:40:04.087Z,2.97
2018-07-25T10:42:32.206Z,2.40
2018-07-25T10:45:03.320Z,2.30
2018-07-25T10:47:31.532Z,2.80
2018-07-25T10:50:00.640Z,2.37
2018-07-25T10:52:31.710Z,2.40
2018-07-25T10:55:05.839Z,2.50
2018-07-25T10:57:36.221Z,2.30
2018-07-25T11:00:05.893Z,2.60
2018-07-25T11:02:36.167Z,2.80
2018-07-25T11:05:05.510Z,2.53
2018-07-25T11:07:37.305Z,2.60
2018-07-25T11:10:06.218Z,2.40
2018-07-25T11:12:35.628Z,2.40
2018-07-25T11:15:06.272Z,2.80
2018-07-25T11:17:34.268Z,2.50
2018-07-25T11:20:04.362Z,2.00
2018-07-25T11:22:33.712Z,2.60
2018-07-25T11:25:02.446Z,2.20
2018-07-25T11:27:32.327Z,2.50
2018-07-25T11:30:02.589Z,2.83
2018-07-25T11:32:30.785Z,2.40
2018-07-25T11:34:59.060Z,3.03
2018-07-25T11:37:28.096Z,2.30
2018-07-25T11:39:57.729Z,3.90
2018-07-25T11:42:26.808Z,2.70
2018-07-25T11:44:55.358Z,2.90
2018-07-25T11:47:25.937Z,2.70
2018-07-25T11:49:56.568Z,2.73
2018-07-25T11:52:27.162Z,2.17
2018-07-25T11:54:56.590Z,3.00
2018-07-25T11:57:26.464Z,13.23
2018-07-25T12:00:19.069Z,12.27
2018-07-25T12:02:49.743Z,3.93
2018-07-25T12:05:18.064Z,2.77
2018-07-25T12:07:47.781Z,2.50
2018-07-25T12:10:17.248Z,2.73
2018-07-25T12:12:45.913Z,2.80
2018-07-25T12:15:15.363Z,2.50
2018-07-25T12:17:43.778Z,2.60
2018-07-25T12:20:13.716Z,2.90
2018-07-25T12:22:44.562Z,2.43
2018-07-25T12:25:13.233Z,2.77
2018-07-25T12:27:42.064Z,2.53
2018-07-25T12:30:11.443Z,2.40
2018-07-25T12:32:39.526Z,2.73
2018-07-25T12:35:10.755Z,2.30
2018-07-25T12:37:40.215Z,2.37
2018-07-25T12:40:09.592Z,2.23
2018-07-25T12:42:40.619Z,2.60
2018-07-25T12:45:09.084Z,2.30
2018-07-25T12:47:37.520Z,2.47
2018-07-25T12:50:06.050Z,2.57
2018-07-25T12:52:35.492Z,2.00
2018-07-25T12:55:04.206Z,2.57
2018-07-25T12:57:32.712Z,2.50
2018-07-25T13:00:00.927Z,2.30
2018-07-25T13:02:29.356Z,2.40
2018-07-25T13:04:57.476Z,2.30
2018-07-25T13:07:25.969Z,2.17
2018-07-25T13:09:53.973Z,1.90
2018-07-25T13:12:22.481Z,2.33
2018-07-25T13:14:50.731Z,3.03
2018-07-25T13:17:19.056Z,2.03
2018-07-25T13:19:47.896Z,2.30
2018-07-25T13:22:16.800Z,2.23
2018-07-25T13:24:45.271Z,2.07
2018-07-25T13:27:13.799Z,1.80
2018-07-25T13:29:42.825Z,1.90
2018-07-25T13:32:10.940Z,2.07
2018-07-25T13:34:38.986Z,2.30
2018-07-25T13:37:10.104Z,2.27
2018-07-25T13:39:40.490Z,2.20
2018-07-25T13:42:10.439Z,2.57
2018-07-25T13:44:40.704Z,2.00
2018-07-25T13:47:12.447Z,1.93
2018-07-25T13:49:41.681Z,2.00
2018-07-25T13:52:11.418Z,1.80
2018-07-25T13:54:40.364Z,1.80
2018-07-25T13:57:11.543Z,1.80
2018-07-25T13:59:39.699Z,2.07
2018-07-25T14:02:10.118Z,1.90
2018-07-25T14:04:38.533Z,1.97
2018-07-25T14:07:08.243Z,2.20
2018-07-25T14:09:36.816Z,2.17
2018-07-25T14:12:05.282Z,1.97
2018-07-25T14:14:34.643Z,1.97
2018-07-25T14:17:03.924Z,2.10
2018-07-25T14:19:32.526Z,2.10
2018-07-25T14:22:01.345Z,1.87
2018-07-25T14:24:30.456Z,2.40
2018-07-25T14:26:58.538Z,2.40
2018-07-25T14:29:26.768Z,2.03
2018-07-25T14:31:55.122Z,2.30
2018-07-25T14:34:26.375Z,2.70
2018-07-25T14:36:56.225Z,1.93
2018-07-25T14:39:24.245Z,2.10
2018-07-25T14:41:52.660Z,1.70
2018-07-25T14:44:22.044Z,2.20
2018-07-25T14:46:51.571Z,2.00
2018-07-25T14:49:19.744Z,1.90
2018-07-25T14:51:48.669Z,2.00
2018-07-25T14:54:16.721Z,2.50
2018-07-25T14:56:50.854Z,2.03
2018-07-25T14:59:19.784Z,2.27
2018-07-25T15:01:50.177Z,2.40
2018-07-25T15:04:18.213Z,2.60
2018-07-25T15:06:47.333Z,2.27
2018-07-25T15:09:17.581Z,2.40
2018-07-25T15:11:45.716Z,2.77
2018-07-25T15:14:16.596Z,2.47
2018-07-25T15:16:48.081Z,2.17
2018-07-25T15:19:16.883Z,2.20
2018-07-25T15:21:45.490Z,2.70
2018-07-25T15:24:13.794Z,2.60
2018-07-25T15:26:42.617Z,2.80
2018-07-25T15:29:13.943Z,2.60
2018-07-25T15:31:44.495Z,2.60
2018-07-25T15:34:13.539Z,3.20
2018-07-25T15:36:49.752Z,2.67
2018-07-25T15:39:19.846Z,2.53
2018-07-25T15:41:48.784Z,2.67
2018-07-25T15:44:19.166Z,3.03
2018-07-25T15:46:48.003Z,2.53
2018-07-25T15:49:16.151Z,2.50
2018-07-25T15:51:44.218Z,3.00
2018-07-25T15:54:12.697Z,2.70
2018-07-25T15:56:46.438Z,2.77
2018-07-25T15:59:14.709Z,2.50
2018-07-25T16:01:43.283Z,2.80
2018-07-25T16:04:13.160Z,2.37
2018-07-25T16:06:42.020Z,2.50
2018-07-25T16:09:13.172Z,2.63
2018-07-25T16:11:41.853Z,2.50
2018-07-25T16:14:10.377Z,2.70
2018-07-25T16:16:39.304Z,2.40
2018-07-25T16:19:07.505Z,2.50
2018-07-25T16:21:36.740Z,2.00
2018-07-25T16:24:04.973Z,2.03
2018-07-25T16:26:33.865Z,2.00
2018-07-25T16:29:03.988Z,2.20
2018-07-25T16:31:32.525Z,1.93
2018-07-25T16:34:01.559Z,2.47
2018-07-25T16:36:31.241Z,2.30
2018-07-25T16:38:59.523Z,2.30
2018-07-25T16:41:32.690Z,2.07
2018-07-25T16:44:02.366Z,2.30
2018-07-25T16:46:32.579Z,2.00
2018-07-25T16:49:01.031Z,1.70
2018-07-25T16:51:29.214Z,2.00
2018-07-25T16:53:57.685Z,2.07
2018-07-25T16:56:26.682Z,2.07
2018-07-25T16:58:54.991Z,2.07
2018-07-25T17:01:23.019Z,1.87
2018-07-25T17:03:52.031Z,2.37
2018-07-25T17:06:20.350Z,2.00
2018-07-25T17:08:48.922Z,2.40
2018-07-25T17:11:18.006Z,2.00
2018-07-25T17:13:47.200Z,1.93
2018-07-25T17:16:15.211Z,1.87
2018-07-25T17:18:47.797Z,2.30
2018-07-25T17:21:16.105Z,2.10
2018-07-25T17:23:45.705Z,2.40
2018-07-25T17:26:13.765Z,2.30
2018-07-25T17:28:41.770Z,2.40
2018-07-25T17:31:12.504Z,2.40
2018-07-25T17:33:44.402Z,2.57
2018-07-25T17:36:15.389Z,2.47
2018-07-25T17:38:45.108Z,2.20
2018-07-25T17:41:16.477Z,2.90
2018-07-25T17:43:45.769Z,2.70
2018-07-25T17:46:16.506Z,2.70
2018-07-25T17:48:45.084Z,2.23
2018-07-25T17:51:13.454Z,2.50
2018-07-25T17:53:41.602Z,3.00
2018-07-25T17:56:10.803Z,3.00
2018-07-25T17:58:40.233Z,3.10
2018-07-25T18:01:11.843Z,2.87
2018-07-25T18:03:41.495Z,2.20
2018-07-25T18:06:10.095Z,2.17
2018-07-25T18:08:40.363Z,2.70
2018-07-25T18:11:09.436Z,2.90
2018-07-25T18:13:43.310Z,2.80
2018-07-25T18:16:14.934Z,2.70
2018-07-25T18:18:43.506Z,2.40
2018-07-25T18:21:12.067Z,2.90
2018-07-25T18:23:41.392Z,2.57
2018-07-25T18:26:10.833Z,2.40
2018-07-25T18:28:40.227Z,2.50
2018-07-25T18:31:09.360Z,2.70
2018-07-25T18:33:38.007Z,3.07
2018-07-25T18:36:06.577Z,3.57
2018-07-25T18:38:35.498Z,3.13
2018-07-25T18:41:05.216Z,2.47
2018-07-25T18:43:34.550Z,3.20
2018-07-25T18:46:05.002Z,2.83
2018-07-25T18:48:35.522Z,3.20
2018-07-25T18:51:03.997Z,2.80
2018-07-25T18:53:33.982Z,3.17
2018-07-25T18:56:05.965Z,2.77
2018-07-25T18:58:39.811Z,2.60
2018-07-25T19:01:12.586Z,3.10
2018-07-25T19:03:41.435Z,2.93
2018-07-25T19:06:12.654Z,2.80
2018-07-25T19:08:41.170Z,2.80
2018-07-25T19:11:11.149Z,2.60
2018-07-25T19:13:43.190Z,2.43
2018-07-25T19:16:14.056Z,2.50
2018-07-25T19:18:43.307Z,2.77
2018-07-25T19:21:12.708Z,2.50
2018-07-25T19:23:42.385Z,2.57
2018-07-25T19:26:12.192Z,2.67
2018-07-25T19:28:40.620Z,2.70
2018-07-25T19:31:09.650Z,2.80
2018-07-25T19:33:37.988Z,2.70
2018-07-25T19:36:08.096Z,2.93
2018-07-25T19:38:39.226Z,3.02
2018-07-25T19:41:23.945Z,2.87
2018-07-25T19:43:52.362Z,3.03
2018-07-25T19:46:21.693Z,2.97
2018-07-25T19:48:50.996Z,2.60
2018-07-25T19:51:24.768Z,2.70
2018-07-25T19:53:54.938Z,2.80
2018-07-25T19:56:23.775Z,2.73
2018-07-25T19:58:52.290Z,2.67
2018-07-25T20:01:22.136Z,2.63
2018-07-25T20:03:51.462Z,2.83
2018-07-25T20:06:19.730Z,3.30
2018-07-25T20:08:53.773Z,3.20
2018-07-25T20:11:23.097Z,3.10
2018-07-25T20:13:58.498Z,3.23
2018-07-25T20:16:26.893Z,3.30
2018-07-25T20:18:55.573Z,3.17
2018-07-25T20:21:28.573Z,2.90
2018-07-25T20:24:02.043Z,3.30
2018-07-25T20:26:33.145Z,2.90
2018-07-25T20:29:03.953Z,3.10
2018-07-25T20:31:32.803Z,2.63
2018-07-25T20:34:04.377Z,2.77
2018-07-25T20:36:36.553Z,2.57
2018-07-25T20:39:14.740Z,2.70
2018-07-25T20:41:51.375Z,2.60
2018-07-25T20:44:50.529Z,3.13
2018-07-25T20:47:24.758Z,2.70
2018-07-25T20:49:53.882Z,3.03
2018-07-25T20:52:26.312Z,2.83
2018-07-25T20:54:55.792Z,2.53
2018-07-25T20:57:25.695Z,2.87
2018-07-25T21:00:28.917Z,3.00
2018-07-25T21:02:59.475Z,2.80
2018-07-25T21:05:30.392Z,3.10
2018-07-25T21:07:59.325Z,3.23
2018-07-25T21:10:29.164Z,3.20
2018-07-25T21:12:59.560Z,2.80
2018-07-25T21:15:29.433Z,2.77
2018-07-25T21:17:58.763Z,2.73
2018-07-25T21:20:27.453Z,2.70
2018-07-25T21:22:57.735Z,2.77
2018-07-25T21:25:26.756Z,3.90
2018-07-25T21:27:58.025Z,3.03
2018-07-25T21:30:26.849Z,3.20
2018-07-25T21:32:55.222Z,3.40
2018-07-25T21:35:23.770Z,2.93
2018-07-25T21:37:52.212Z,2.90
2018-07-25T21:40:21.297Z,3.40
2018-07-25T21:42:50.273Z,3.50
2018-07-25T21:45:19.219Z,3.00
2018-07-25T21:47:47.141Z,3.33
2018-07-25T21:50:19.903Z,3.43
2018-07-25T21:52:48.065Z,3.20
2018-07-25T21:55:18.386Z,3.50
2018-07-25T21:57:46.882Z,3.30
2018-07-25T22:00:19.718Z,3.10
2018-07-25T22:02:48.862Z,2.90
2018-07-25T22:05:17.786Z,3.27
2018-07-25T22:07:46.359Z,3.60
2018-07-25T22:10:14.858Z,3.30
2018-07-25T22:12:42.849Z,3.10
2018-07-25T22:15:11.521Z,3.20
2018-07-25T22:17:42.039Z,3.10
2018-07-25T22:20:14.604Z,3.40
2018-07-25T22:22:43.696Z,3.20
2018-07-25T22:25:15.656Z,4.00
2018-07-25T22:27:44.916Z,3.80
2018-07-25T22:30:13.017Z,3.63
2018-07-25T22:32:40.997Z,3.33
2018-07-25T22:35:10.356Z,3.77
2018-07-25T22:37:38.412Z,3.40
2018-07-25T22:40:06.448Z,3.70
2018-07-25T22:42:34.964Z,3.30
2018-07-25T22:45:04.688Z,3.63
2018-07-25T22:47:33.440Z,4.00
2018-07-25T22:50:01.836Z,4.20
2018-07-25T22:52:30.035Z,3.40
2018-07-25T22:54:58.317Z,3.30
2018-07-25T22:57:28.305Z,3.00
2018-07-25T22:59:56.252Z,3.20
2018-07-25T23:02:26.291Z,3.27
2018-07-25T23:04:54.516Z,3.33
2018-07-25T23:07:24.084Z,3.40
2018-07-25T23:09:53.128Z,3.60
2018-07-25T23:12:21.766Z,4.13
2018-07-25T23:14:51.272Z,4.03
2018-07-25T23:17:19.510Z,4.17
2018-07-25T23:19:48.935Z,3.93
2018-07-25T23:22:17.604Z,3.77
2018-07-25T23:24:46.129Z,3.93
2018-07-25T23:27:17.358Z,3.97
2018-07-25T23:29:45.874Z,4.30
2018-07-25T23:32:15.647Z,3.77
2018-07-25T23:34:44.388Z,3.70
2018-07-25T23:37:16.395Z,3.70
2018-07-25T23:39:45.402Z,3.97
2018-07-25T23:42:13.566Z,3.77
2018-07-25T23:44:42.285Z,4.00
2018-07-25T23:47:11.802Z,3.80
2018-07-25T23:49:41.302Z,3.90
2018-07-25T23:52:09.332Z,4.07
2018-07-25T23:54:39.027Z,4.70
2018-07-25T23:57:07.186Z,4.00
2018-07-25T23:59:38.526Z,4.00
